Braidwood, Illinois
Current Conditions -  °F | °C
As of 1:15 AM on Friday 19 Dec 2014 (Local Time) from KC09 Reporting Station
Overcast Overcast  
Wind Chill: 17°   Ceiling: 3000
Heat Index: 24°   Visibility: 10mi
Dew Point: 22°   Wind: 6mph
Humidity: 91%   Direction: 280°W
Pressure: 30.28"   Gusts: NA
Location:  41.27°N, 88.21°W
Report Text: KC09 190715Z AUTO 28005KT 10SM OVC030 M04/M06 A3028 RMK AO2 T10451057
Loading
Personal Weather Stations






























Interactive Weather Map New forecast layout! Learn more

10-Day Weather Forecast

Advertisements
Track Severe Weather on mobile